Namur, Belgium
Current Conditions -  °F | °C
As of 4:50 AM on Monday 24 Nov 2014 (Local Time) from EBCI Reporting Station
Broken Clouds Broken Clouds  
Wind Chill: 43°   Ceiling: 1600
Heat Index: 46°   Visibility: 6mi
Dew Point: 45°   Wind: 7mph
Humidity: 93%   Direction: 320°NW
Pressure: 30.15"   Gusts: NA
Location:  50.46°N, 4.85°E
Report Text: EBCI 240350Z 32006KT 290V010 9999 SCT006 BKN016 08/07 Q1021 NOSIG
Loading
Personal Weather Stations






























Interactive Weather Map New forecast layout! Learn more

10-Day Weather Forecast

Advertisements
Track Severe Weather on mobile